createdAt,value
2023-02-15T00:00:16.298Z,1024.13
2023-02-15T00:01:16.320Z,1024.07
2023-02-15T00:02:16.446Z,1024.05
2023-02-15T00:03:16.416Z,1024.06
2023-02-15T00:04:16.390Z,1024.10
2023-02-15T00:05:16.409Z,1024.06
2023-02-15T00:06:16.432Z,1024.01
2023-02-15T00:07:16.450Z,1024.05
2023-02-15T00:08:16.472Z,1023.99
2023-02-15T00:09:16.515Z,1024.01
2023-02-15T00:10:16.524Z,1023.96
2023-02-15T00:11:16.542Z,1023.97
2023-02-15T00:12:16.570Z,1023.94
2023-02-15T00:13:16.576Z,1023.92
2023-02-15T00:14:16.600Z,1023.87
2023-02-15T00:15:16.619Z,1023.87
2023-02-15T00:16:16.670Z,1023.87
2023-02-15T00:17:16.662Z,1023.86
2023-02-15T00:18:16.686Z,1023.86
2023-02-15T00:19:16.725Z,1023.86
2023-02-15T00:20:16.727Z,1023.85
2023-02-15T00:21:16.755Z,1023.91
2023-02-15T00:22:16.771Z,1023.88
2023-02-15T00:23:16.791Z,1023.84
2023-02-15T00:24:16.817Z,1023.86
2023-02-15T00:25:16.840Z,1023.87
2023-02-15T00:26:16.857Z,1023.83
2023-02-15T00:27:16.878Z,1023.87
2023-02-15T00:28:16.915Z,1023.84
2023-02-15T00:29:16.920Z,1023.82
2023-02-15T00:30:17.062Z,1023.84
2023-02-15T00:31:17.096Z,1023.83
2023-02-15T00:32:16.988Z,1023.85
2023-02-15T00:33:17.008Z,1023.77
2023-02-15T00:34:17.031Z,1023.78
2023-02-15T00:35:17.083Z,1023.81
2023-02-15T00:36:17.087Z,1023.74
2023-02-15T00:37:17.096Z,1023.78
2023-02-15T00:38:17.116Z,1023.76
2023-02-15T00:39:17.136Z,1023.75
2023-02-15T00:40:17.159Z,1023.75
2023-02-15T00:41:17.179Z,1023.79
2023-02-15T00:42:17.202Z,1023.80
2023-02-15T00:43:17.222Z,1023.79
2023-02-15T00:44:17.279Z,1023.81
2023-02-15T00:45:17.501Z,1023.87
2023-02-15T00:46:17.330Z,1023.85
2023-02-15T00:47:17.308Z,1023.87
2023-02-15T00:48:17.331Z,1023.82
2023-02-15T00:49:17.352Z,1023.87
2023-02-15T00:50:17.377Z,1023.87
2023-02-15T00:51:17.417Z,1023.84
2023-02-15T00:52:17.420Z,1023.84
2023-02-15T00:53:17.438Z,1023.85
2023-02-15T00:54:17.461Z,1023.90
2023-02-15T00:55:17.486Z,1023.87
2023-02-15T00:56:17.507Z,1023.87
2023-02-15T00:57:17.522Z,1023.87
2023-02-15T00:58:17.645Z,1023.84
2023-02-15T00:59:17.573Z,1023.80
2023-02-15T01:00:17.589Z,1023.81
2023-02-15T01:01:17.685Z,1023.79
2023-02-15T01:02:17.633Z,1023.76
2023-02-15T01:03:17.655Z,1023.67
2023-02-15T01:04:17.755Z,1023.73
2023-02-15T01:05:17.697Z,1023.71
2023-02-15T01:06:17.720Z,1023.75
2023-02-15T01:07:17.775Z,1023.71
2023-02-15T01:08:17.764Z,1023.69
2023-02-15T01:09:17.785Z,1023.72
2023-02-15T01:10:17.809Z,1023.73
2023-02-15T01:11:17.829Z,1023.71
2023-02-15T01:12:17.854Z,1023.78
2023-02-15T01:13:17.870Z,1023.72
2023-02-15T01:14:17.894Z,1023.74
2023-02-15T01:15:17.915Z,1023.76
2023-02-15T01:16:18.144Z,1023.77
2023-02-15T01:17:17.960Z,1023.72
2023-02-15T01:18:17.986Z,1023.78
2023-02-15T01:19:18.163Z,1023.74
2023-02-15T01:20:18.037Z,1023.78
2023-02-15T01:21:18.043Z,1023.74
2023-02-15T01:22:18.202Z,1023.74
2023-02-15T01:23:18.109Z,1023.73
2023-02-15T01:24:18.108Z,1023.72
2023-02-15T01:25:18.136Z,1023.74
2023-02-15T01:26:18.151Z,1023.74
2023-02-15T01:27:18.173Z,1023.70
2023-02-15T01:28:18.204Z,1023.71
2023-02-15T01:29:18.214Z,1023.67
2023-02-15T01:30:18.304Z,1023.69
2023-02-15T01:31:18.491Z,1023.69
2023-02-15T01:32:18.283Z,1023.62
2023-02-15T01:33:18.342Z,1023.58
2023-02-15T01:34:18.324Z,1023.58
2023-02-15T01:35:18.344Z,1023.57
2023-02-15T01:36:18.451Z,1023.59
2023-02-15T01:37:18.388Z,1023.49
2023-02-15T01:38:18.410Z,1023.58
2023-02-15T01:39:18.446Z,1023.54
2023-02-15T01:40:18.453Z,1023.53
2023-02-15T01:41:18.470Z,1023.54
2023-02-15T01:42:18.493Z,1023.53
2023-02-15T01:43:18.517Z,1023.50
2023-02-15T01:44:18.536Z,1023.55
2023-02-15T01:45:18.555Z,1023.49
2023-02-15T01:46:18.672Z,1023.52
2023-02-15T01:47:18.601Z,1023.49
2023-02-15T01:48:18.624Z,1023.53
2023-02-15T01:49:18.739Z,1023.49
2023-02-15T01:50:18.665Z,1023.52
2023-02-15T01:51:18.684Z,1023.48
2023-02-15T01:52:18.702Z,1023.51
2023-02-15T01:53:18.726Z,1023.51
2023-02-15T01:54:18.748Z,1023.54
2023-02-15T01:55:18.784Z,1023.53
2023-02-15T01:56:18.789Z,1023.49
2023-02-15T01:57:18.822Z,1023.49
2023-02-15T01:58:18.829Z,1023.49
2023-02-15T01:59:18.857Z,1023.46
2023-02-15T02:00:18.873Z,1023.47
2023-02-15T02:01:18.959Z,1023.43
2023-02-15T02:02:18.999Z,1023.42
2023-02-15T02:03:18.935Z,1023.43
2023-02-15T02:04:18.956Z,1023.45
2023-02-15T02:05:18.977Z,1023.45
2023-02-15T02:06:19.000Z,1023.44
2023-02-15T02:07:19.022Z,1023.47
2023-02-15T02:08:19.046Z,1023.43
2023-02-15T02:09:19.093Z,1023.44
2023-02-15T02:10:19.109Z,1023.40
2023-02-15T02:11:19.146Z,1023.40
2023-02-15T02:12:19.128Z,1023.37
2023-02-15T02:13:19.150Z,1023.35
2023-02-15T02:14:19.169Z,1023.37
2023-02-15T02:15:19.190Z,1023.41
2023-02-15T02:16:19.255Z,1023.33
2023-02-15T02:17:19.234Z,1023.29
2023-02-15T02:18:19.255Z,1023.30
2023-02-15T02:19:19.276Z,1023.32
2023-02-15T02:20:19.305Z,1023.32
2023-02-15T02:21:19.322Z,1023.33
2023-02-15T02:22:19.341Z,1023.31
2023-02-15T02:23:19.369Z,1023.30
2023-02-15T02:24:19.383Z,1023.29
2023-02-15T02:25:19.403Z,1023.29
2023-02-15T02:26:19.428Z,1023.25
2023-02-15T02:27:19.467Z,1023.25
2023-02-15T02:28:19.468Z,1023.22
2023-02-15T02:29:19.498Z,1023.26
2023-02-15T02:30:19.566Z,1023.23
2023-02-15T02:31:19.578Z,1023.21
2023-02-15T02:32:19.553Z,1023.22
2023-02-15T02:33:19.580Z,1023.23
2023-02-15T02:34:19.797Z,1023.18
2023-02-15T02:35:19.625Z,1023.18
2023-02-15T02:36:19.643Z,1023.16
2023-02-15T02:37:19.663Z,1023.21
2023-02-15T02:38:19.680Z,1023.17
2023-02-15T02:39:19.758Z,1023.18
2023-02-15T02:40:19.742Z,1023.10
2023-02-15T02:41:19.749Z,1023.06
2023-02-15T02:42:19.768Z,1023.06
2023-02-15T02:43:19.809Z,1023.07
2023-02-15T02:44:19.819Z,1023.05
2023-02-15T02:45:19.830Z,1023.03
2023-02-15T02:46:19.921Z,1023.04
2023-02-15T02:47:19.875Z,1023.00
2023-02-15T02:48:19.893Z,1022.99
2023-02-15T02:49:19.917Z,1023.01
2023-02-15T02:50:19.938Z,1022.98
2023-02-15T02:51:19.960Z,1022.99
2023-02-15T02:52:19.979Z,1023.02
2023-02-15T02:53:19.999Z,1022.92
2023-02-15T02:54:20.023Z,1022.95
2023-02-15T02:55:20.042Z,1022.93
2023-02-15T02:56:20.066Z,1022.95
2023-02-15T02:57:20.134Z,1022.92
2023-02-15T02:58:20.106Z,1022.93
2023-02-15T02:59:20.161Z,1022.90
2023-02-15T03:00:20.148Z,1022.85
2023-02-15T03:01:20.200Z,1022.89
2023-02-15T03:02:20.189Z,1022.87
2023-02-15T03:03:20.214Z,1022.87
2023-02-15T03:04:20.236Z,1022.83
2023-02-15T03:05:20.254Z,1022.81
2023-02-15T03:06:20.274Z,1022.79
2023-02-15T03:07:20.301Z,1022.77
2023-02-15T03:08:20.317Z,1022.77
2023-02-15T03:09:20.339Z,1022.79
2023-02-15T03:10:20.367Z,1022.79
2023-02-15T03:11:20.385Z,1022.72
2023-02-15T03:12:20.403Z,1022.74
2023-02-15T03:13:20.425Z,1022.75
2023-02-15T03:14:20.448Z,1022.68
2023-02-15T03:15:20.492Z,1022.71
2023-02-15T03:16:20.546Z,1022.70
2023-02-15T03:17:20.513Z,1022.69
2023-02-15T03:18:20.531Z,1022.73
2023-02-15T03:19:20.556Z,1022.71
2023-02-15T03:20:20.576Z,1022.68
2023-02-15T03:21:20.596Z,1022.75
2023-02-15T03:22:20.617Z,1022.71
2023-02-15T03:23:20.637Z,1022.72
2023-02-15T03:24:20.657Z,1022.68
2023-02-15T03:25:20.682Z,1022.63
2023-02-15T03:26:20.701Z,1022.64
2023-02-15T03:27:20.723Z,1022.62
2023-02-15T03:28:20.743Z,1022.58
2023-02-15T03:29:20.765Z,1022.64
2023-02-15T03:30:20.852Z,1022.67
2023-02-15T03:31:20.932Z,1022.66
2023-02-15T03:32:20.873Z,1022.70
2023-02-15T03:33:20.850Z,1022.66
2023-02-15T03:34:20.871Z,1022.70
2023-02-15T03:35:20.892Z,1022.64
2023-02-15T03:36:20.911Z,1022.75
2023-02-15T03:37:20.933Z,1022.69
2023-02-15T03:38:20.955Z,1022.64
2023-02-15T03:39:21.176Z,1022.61
2023-02-15T03:40:20.996Z,1022.61
2023-02-15T03:41:21.019Z,1022.60
2023-02-15T03:42:21.139Z,1022.59
2023-02-15T03:43:21.061Z,1022.64
2023-02-15T03:44:21.152Z,1022.61
2023-02-15T03:45:23.726Z,1022.61
2023-02-15T03:46:21.153Z,1022.60
2023-02-15T03:47:21.166Z,1022.65
2023-02-15T03:48:21.160Z,1022.61
2023-02-15T03:49:21.183Z,1022.63
2023-02-15T03:50:21.210Z,1022.60
2023-02-15T03:51:21.232Z,1022.60
2023-02-15T03:52:21.245Z,1022.55
2023-02-15T03:53:22.005Z,1022.59
2023-02-15T03:54:21.289Z,1022.55
2023-02-15T03:55:21.343Z,1022.60
2023-02-15T03:56:21.329Z,1022.53
2023-02-15T03:57:21.353Z,1022.51
2023-02-15T03:58:21.371Z,1022.52
2023-02-15T03:59:21.395Z,1022.49
2023-02-15T04:00:21.413Z,1022.47
2023-02-15T04:01:21.457Z,1022.48
2023-02-15T04:02:21.454Z,1022.46
2023-02-15T04:03:21.552Z,1022.52
2023-02-15T04:04:21.503Z,1022.48
2023-02-15T04:05:21.519Z,1022.52
2023-02-15T04:06:21.539Z,1022.56
2023-02-15T04:07:21.572Z,1022.56
2023-02-15T04:08:21.587Z,1022.58
2023-02-15T04:09:21.618Z,1022.60
2023-02-15T04:10:21.674Z,1022.62
2023-02-15T04:11:21.648Z,1022.61
2023-02-15T04:12:21.668Z,1022.66
2023-02-15T04:13:21.685Z,1022.67
2023-02-15T04:14:21.709Z,1022.69
2023-02-15T04:15:21.733Z,1022.71
2023-02-15T04:16:21.758Z,1022.64
2023-02-15T04:17:21.782Z,1022.64
2023-02-15T04:18:21.788Z,1022.63
2023-02-15T04:19:21.829Z,1022.65
2023-02-15T04:20:21.837Z,1022.67
2023-02-15T04:21:21.857Z,1022.65
2023-02-15T04:22:21.871Z,1022.65
2023-02-15T04:23:21.894Z,1022.64
2023-02-15T04:24:21.913Z,1022.61
2023-02-15T04:25:21.946Z,1022.62
2023-02-15T04:26:21.959Z,1022.52
2023-02-15T04:27:21.988Z,1022.57
2023-02-15T04:28:22.007Z,1022.58
2023-02-15T04:29:22.021Z,1022.59
2023-02-15T04:30:22.107Z,1022.58
2023-02-15T04:31:22.125Z,1022.62
2023-02-15T04:32:22.115Z,1022.61
2023-02-15T04:33:22.112Z,1022.64
2023-02-15T04:34:22.125Z,1022.58
2023-02-15T04:35:22.166Z,1022.64
2023-02-15T04:36:22.162Z,1022.65
2023-02-15T04:37:22.198Z,1022.56
2023-02-15T04:38:22.205Z,1022.57
2023-02-15T04:39:22.231Z,1022.57
2023-02-15T04:40:22.264Z,1022.63
2023-02-15T04:41:22.272Z,1022.57
2023-02-15T04:42:22.290Z,1022.49
2023-02-15T04:43:22.313Z,1022.52
2023-02-15T04:44:22.329Z,1022.53
2023-02-15T04:45:22.356Z,1022.52
2023-02-15T04:46:22.461Z,1022.52
2023-02-15T04:47:22.395Z,1022.48
2023-02-15T04:48:22.414Z,1022.48
2023-02-15T04:49:22.437Z,1022.41
2023-02-15T04:50:22.454Z,1022.38
2023-02-15T04:51:22.502Z,1022.41
2023-02-15T04:52:22.497Z,1022.41
2023-02-15T04:53:22.521Z,1022.44
2023-02-15T04:54:22.539Z,1022.47
2023-02-15T04:55:22.562Z,1022.50
2023-02-15T04:56:22.585Z,1022.48
2023-02-15T04:57:22.604Z,1022.42
2023-02-15T04:58:22.626Z,1022.44
2023-02-15T04:59:22.650Z,1022.40
2023-02-15T05:00:22.672Z,1022.40
2023-02-15T05:01:22.771Z,1022.40
2023-02-15T05:02:22.708Z,1022.38
2023-02-15T05:03:22.728Z,1022.43
2023-02-15T05:04:23.003Z,1022.42
2023-02-15T05:05:22.771Z,1022.44
2023-02-15T05:06:22.799Z,1022.42
2023-02-15T05:07:22.834Z,1022.46
2023-02-15T05:08:22.934Z,1022.40
2023-02-15T05:09:22.855Z,1022.44
2023-02-15T05:10:22.873Z,1022.46
2023-02-15T05:11:22.897Z,1022.43
2023-02-15T05:12:22.915Z,1022.39
2023-02-15T05:13:22.936Z,1022.41
2023-02-15T05:14:22.957Z,1022.41
2023-02-15T05:15:22.980Z,1022.39
2023-02-15T05:16:23.015Z,1022.41
2023-02-15T05:17:23.021Z,1022.43
2023-02-15T05:18:23.042Z,1022.42
2023-02-15T05:19:23.065Z,1022.42
2023-02-15T05:20:23.083Z,1022.41
2023-02-15T05:21:23.109Z,1022.40
2023-02-15T05:22:23.125Z,1022.44
2023-02-15T05:23:23.167Z,1022.38
2023-02-15T05:24:23.165Z,1022.38
2023-02-15T05:25:23.190Z,1022.41
2023-02-15T05:26:23.208Z,1022.38
2023-02-15T05:27:23.235Z,1022.38
2023-02-15T05:28:23.249Z,1022.38
2023-02-15T05:29:23.275Z,1022.37
2023-02-15T05:30:23.513Z,1022.41
2023-02-15T05:31:23.596Z,1022.41
2023-02-15T05:32:23.507Z,1022.39
2023-02-15T05:33:23.562Z,1022.39
2023-02-15T05:35:23.399Z,1022.40
2023-02-15T05:36:23.423Z,1022.36
2023-02-15T05:37:23.442Z,1022.41
2023-02-15T05:38:23.468Z,1022.47
2023-02-15T05:39:23.503Z,1022.43
2023-02-15T05:40:23.507Z,1022.45
2023-02-15T05:41:23.532Z,1022.44
2023-02-15T05:42:23.603Z,1022.46
2023-02-15T05:43:23.568Z,1022.43
2023-02-15T05:44:23.596Z,1022.42
2023-02-15T05:45:23.608Z,1022.42
2023-02-15T05:46:23.709Z,1022.41
2023-02-15T05:47:23.652Z,1022.44
2023-02-15T05:48:23.675Z,1022.46
2023-02-15T05:49:23.693Z,1022.47
2023-02-15T05:50:23.715Z,1022.45
2023-02-15T05:51:23.736Z,1022.41
2023-02-15T05:52:23.756Z,1022.40
2023-02-15T05:53:23.778Z,1022.40
2023-02-15T05:54:23.797Z,1022.37
2023-02-15T05:55:23.888Z,1022.36
2023-02-15T05:56:23.840Z,1022.33
2023-02-15T05:57:23.858Z,1022.40
2023-02-15T05:58:23.884Z,1022.39
2023-02-15T05:59:23.909Z,1022.36
2023-02-15T06:00:23.922Z,1022.34
2023-02-15T06:01:24.044Z,1022.31
2023-02-15T06:02:24.010Z,1022.29
2023-02-15T06:03:24.117Z,1022.29
2023-02-15T06:04:24.010Z,1022.31
2023-02-15T06:05:24.025Z,1022.31
2023-02-15T06:06:24.048Z,1022.32
2023-02-15T06:07:24.067Z,1022.36
2023-02-15T06:08:24.091Z,1022.31
2023-02-15T06:09:24.109Z,1022.32
2023-02-15T06:10:24.130Z,1022.30
2023-02-15T06:11:24.175Z,1022.35
2023-02-15T06:12:24.169Z,1022.39
2023-02-15T06:13:24.190Z,1022.38
2023-02-15T06:14:24.414Z,1022.37
2023-02-15T06:15:24.265Z,1022.38
2023-02-15T06:16:24.258Z,1022.35
2023-02-15T06:17:24.274Z,1022.38
2023-02-15T06:18:24.321Z,1022.33
2023-02-15T06:19:24.319Z,1022.33
2023-02-15T06:20:24.338Z,1022.27
2023-02-15T06:21:24.355Z,1022.29
2023-02-15T06:22:24.385Z,1022.32
2023-02-15T06:23:24.398Z,1022.29
2023-02-15T06:24:24.419Z,1022.29
2023-02-15T06:25:24.439Z,1022.35
2023-02-15T06:26:24.471Z,1022.36
2023-02-15T06:27:24.505Z,1022.32
2023-02-15T06:28:24.501Z,1022.33
2023-02-15T06:29:24.521Z,1022.36
2023-02-15T06:30:24.613Z,1022.35
2023-02-15T06:31:24.644Z,1022.35
2023-02-15T06:32:24.584Z,1022.36
2023-02-15T06:33:24.610Z,1022.40
2023-02-15T06:34:24.625Z,1022.37
2023-02-15T06:35:24.646Z,1022.38
2023-02-15T06:36:24.667Z,1022.45
2023-02-15T06:37:24.686Z,1022.46
2023-02-15T06:38:24.708Z,1022.47
2023-02-15T06:39:24.727Z,1022.46
2023-02-15T06:40:24.748Z,1022.54
2023-02-15T06:41:24.773Z,1022.50
2023-02-15T06:42:24.789Z,1022.56
2023-02-15T06:43:24.830Z,1022.51
2023-02-15T06:44:24.830Z,1022.52
2023-02-15T06:45:24.850Z,1022.50
2023-02-15T06:46:24.961Z,1022.41
2023-02-15T06:47:24.893Z,1022.43
2023-02-15T06:48:24.917Z,1022.42
2023-02-15T06:49:24.933Z,1022.46
2023-02-15T06:50:24.953Z,1022.45
2023-02-15T06:51:24.974Z,1022.48
2023-02-15T06:52:24.994Z,1022.49
2023-02-15T06:53:25.020Z,1022.46
2023-02-15T06:54:25.035Z,1022.43
2023-02-15T06:55:25.060Z,1022.43
2023-02-15T06:56:25.077Z,1022.46
2023-02-15T06:57:25.098Z,1022.47
2023-02-15T06:58:25.123Z,1022.44
2023-02-15T06:59:25.160Z,1022.44
2023-02-15T07:00:25.166Z,1022.46
2023-02-15T07:01:25.250Z,1022.46
2023-02-15T07:02:25.200Z,1022.47
2023-02-15T07:03:25.220Z,1022.45
2023-02-15T07:04:25.277Z,1022.48
2023-02-15T07:05:25.265Z,1022.49
2023-02-15T07:06:25.280Z,1022.47
2023-02-15T07:07:25.302Z,1022.51
2023-02-15T07:08:25.331Z,1022.53
2023-02-15T07:09:25.350Z,1022.49
2023-02-15T07:10:25.360Z,1022.42
2023-02-15T07:11:25.382Z,1022.46
2023-02-15T07:12:25.402Z,1022.47
2023-02-15T07:13:25.424Z,1022.46
2023-02-15T07:14:27.152Z,1022.44
2023-02-15T07:15:25.485Z,1022.45
2023-02-15T07:16:25.639Z,1022.43
2023-02-15T07:17:35.411Z,1022.41
2023-02-15T07:18:25.524Z,1022.41
2023-02-15T07:19:25.548Z,1022.45
2023-02-15T07:20:25.570Z,1022.45
2023-02-15T07:21:25.586Z,1022.41
2023-02-15T07:22:25.605Z,1022.45
2023-02-15T07:23:25.630Z,1022.43
2023-02-15T07:24:25.645Z,1022.43
2023-02-15T07:25:25.669Z,1022.45
2023-02-15T07:26:25.694Z,1022.42
2023-02-15T07:27:25.714Z,1022.47
2023-02-15T07:28:25.749Z,1022.45
2023-02-15T07:29:25.756Z,1022.34
2023-02-15T07:30:25.811Z,1022.42
2023-02-15T07:31:25.811Z,1022.33
2023-02-15T07:32:25.924Z,1022.37
2023-02-15T07:33:25.982Z,1022.34
2023-02-15T07:34:25.866Z,1022.36
2023-02-15T07:35:25.878Z,1022.28
2023-02-15T07:36:25.898Z,1022.34
2023-02-15T07:37:25.922Z,1022.30
2023-02-15T07:38:25.936Z,1022.27
2023-02-15T07:39:25.961Z,1022.20
2023-02-15T07:40:25.987Z,1022.21
2023-02-15T07:41:26.000Z,1022.17
2023-02-15T07:42:26.019Z,1022.14
2023-02-15T07:43:26.040Z,1022.12
2023-02-15T07:44:26.061Z,1022.11
2023-02-15T07:45:26.083Z,1022.11
2023-02-15T07:46:26.177Z,1022.06
2023-02-15T07:47:26.165Z,1022.04
2023-02-15T07:48:26.144Z,1022.01
2023-02-15T07:49:26.183Z,1021.98
2023-02-15T07:50:26.189Z,1021.98
2023-02-15T07:51:26.209Z,1021.94
2023-02-15T07:52:26.261Z,1021.96
2023-02-15T07:53:26.263Z,1021.94
2023-02-15T07:54:26.272Z,1021.93
2023-02-15T07:55:26.296Z,1021.95
2023-02-15T07:56:26.312Z,1021.94
2023-02-15T07:57:26.336Z,1021.92
2023-02-15T07:58:26.354Z,1021.89
2023-02-15T07:59:26.376Z,1021.90
2023-02-15T08:00:26.399Z,1021.92
2023-02-15T08:01:26.422Z,1021.91
2023-02-15T08:02:26.528Z,1021.94
2023-02-15T08:03:26.564Z,1021.89
2023-02-15T08:04:26.487Z,1021.88
2023-02-15T08:05:26.510Z,1021.88
2023-02-15T08:06:26.524Z,1021.87
2023-02-15T08:07:26.546Z,1021.85
2023-02-15T08:08:26.564Z,1021.89
2023-02-15T08:09:26.587Z,1021.86
2023-02-15T08:10:26.609Z,1021.89
2023-02-15T08:11:26.655Z,1021.85
2023-02-15T08:12:26.651Z,1021.86
2023-02-15T08:13:26.678Z,1021.92
2023-02-15T08:14:26.694Z,1021.88
2023-02-15T08:15:26.722Z,1021.85
2023-02-15T08:16:26.788Z,1021.91
2023-02-15T08:17:26.765Z,1021.90
2023-02-15T08:18:26.784Z,1021.92
2023-02-15T08:19:26.823Z,1021.90
2023-02-15T08:20:26.824Z,1021.91
2023-02-15T08:21:26.848Z,1021.87
2023-02-15T08:22:26.866Z,1021.81
2023-02-15T08:23:26.888Z,1021.85
2023-02-15T08:24:26.918Z,1021.87
2023-02-15T08:25:26.938Z,1021.85
2023-02-15T08:26:26.953Z,1021.74
2023-02-15T08:27:26.975Z,1021.78
2023-02-15T08:28:26.997Z,1021.73
2023-02-15T08:29:27.027Z,1021.80
2023-02-15T08:30:27.148Z,1021.73
2023-02-15T08:31:27.170Z,1021.77
2023-02-15T08:32:27.081Z,1021.74
2023-02-15T08:33:27.106Z,1021.73
2023-02-15T08:34:27.126Z,1021.76
2023-02-15T08:35:27.285Z,1021.73
2023-02-15T08:36:27.169Z,1021.76
2023-02-15T08:37:27.193Z,1021.78
2023-02-15T08:38:27.219Z,1021.75
2023-02-15T08:39:27.240Z,1021.74
2023-02-15T08:40:27.264Z,1021.74
2023-02-15T08:41:27.280Z,1021.75
2023-02-15T08:42:27.302Z,1021.75
2023-02-15T08:43:27.325Z,1021.73
2023-02-15T08:44:27.348Z,1021.77
2023-02-15T08:45:27.472Z,1021.71
2023-02-15T08:46:27.389Z,1021.75
2023-02-15T08:47:27.410Z,1021.73
2023-02-15T08:48:27.452Z,1021.70
2023-02-15T08:49:27.458Z,1021.71
2023-02-15T08:50:27.590Z,1021.71
2023-02-15T08:51:27.532Z,1021.71
2023-02-15T08:52:27.517Z,1021.64
2023-02-15T08:53:27.544Z,1021.63
2023-02-15T08:54:27.559Z,1021.62
2023-02-15T08:55:27.603Z,1021.58
2023-02-15T08:56:27.637Z,1021.58
2023-02-15T08:57:27.627Z,1021.60
2023-02-15T08:58:27.649Z,1021.61
2023-02-15T08:59:27.676Z,1021.54
2023-02-15T09:00:27.733Z,1021.52
2023-02-15T09:01:27.758Z,1021.54
2023-02-15T09:02:27.751Z,1021.49
2023-02-15T09:03:27.764Z,1021.54
2023-02-15T09:04:27.786Z,1021.51
2023-02-15T09:05:27.802Z,1021.51
2023-02-15T09:06:27.823Z,1021.61
2023-02-15T09:07:27.907Z,1021.59
2023-02-15T09:08:27.866Z,1021.58
2023-02-15T09:09:28.294Z,1021.56
2023-02-15T09:10:27.910Z,1021.57
2023-02-15T09:11:27.935Z,1021.63
2023-02-15T09:12:28.061Z,1021.64
2023-02-15T09:13:27.977Z,1021.63
2023-02-15T09:14:28.201Z,1021.64
2023-02-15T09:15:28.023Z,1021.64
2023-02-15T09:16:28.133Z,1021.61
2023-02-15T09:17:28.067Z,1021.58
2023-02-15T09:18:28.087Z,1021.58
2023-02-15T09:19:28.212Z,1021.57
2023-02-15T09:20:28.131Z,1021.61
2023-02-15T09:21:28.155Z,1021.49
2023-02-15T09:22:28.177Z,1021.57
2023-02-15T09:23:28.293Z,1021.60
2023-02-15T09:24:28.221Z,1021.51
2023-02-15T09:25:28.251Z,1021.56
2023-02-15T09:26:28.266Z,1021.55
2023-02-15T09:27:28.292Z,1021.53
2023-02-15T09:28:28.311Z,1021.47
2023-02-15T09:29:28.343Z,1021.50
2023-02-15T09:30:28.798Z,1021.54
2023-02-15T09:31:28.453Z,1021.49
2023-02-15T09:32:28.401Z,1021.55
2023-02-15T09:33:28.428Z,1021.57
2023-02-15T09:34:28.445Z,1021.61
2023-02-15T09:35:28.470Z,1021.63
2023-02-15T09:36:28.503Z,1021.65
2023-02-15T09:37:28.518Z,1021.61
2023-02-15T09:38:28.536Z,1021.63
2023-02-15T09:39:28.590Z,1021.63
2023-02-15T09:40:28.585Z,1021.65
2023-02-15T09:41:28.606Z,1021.70
2023-02-15T09:42:28.627Z,1021.72
2023-02-15T09:43:28.651Z,1021.69
2023-02-15T09:44:28.673Z,1021.70
2023-02-15T09:45:28.701Z,1021.73
2023-02-15T09:46:28.717Z,1021.72
2023-02-15T09:47:28.746Z,1021.65
2023-02-15T09:48:28.776Z,1021.70
2023-02-15T09:49:28.794Z,1021.64
2023-02-15T09:50:28.814Z,1021.67
2023-02-15T09:51:28.842Z,1021.70
2023-02-15T09:52:28.870Z,1021.74
2023-02-15T09:53:28.886Z,1021.68
2023-02-15T09:54:28.903Z,1021.69
2023-02-15T09:55:28.960Z,1021.73
2023-02-15T09:56:28.957Z,1021.72
2023-02-15T09:57:28.977Z,1021.75
2023-02-15T09:58:28.998Z,1021.70
2023-02-15T09:59:29.025Z,1021.71
2023-02-15T10:00:29.051Z,1021.68
2023-02-15T10:01:29.128Z,1021.65
2023-02-15T10:02:29.093Z,1021.60
2023-02-15T10:03:29.116Z,1021.66
2023-02-15T10:04:29.204Z,1021.62
2023-02-15T10:05:29.164Z,1021.55
2023-02-15T10:06:29.189Z,1021.62
2023-02-15T10:07:29.210Z,1021.63
2023-02-15T10:08:29.229Z,1021.58
2023-02-15T10:09:29.274Z,1021.59
2023-02-15T10:10:29.283Z,1021.54
2023-02-15T10:11:29.326Z,1021.49
2023-02-15T10:12:29.323Z,1021.50
2023-02-15T10:13:29.350Z,1021.47
2023-02-15T10:14:29.373Z,1021.50
2023-02-15T10:15:29.429Z,1021.48
2023-02-15T10:16:29.462Z,1021.48
2023-02-15T10:17:29.444Z,1021.51
2023-02-15T10:18:29.467Z,1021.45
2023-02-15T10:19:29.492Z,1021.42
2023-02-15T10:20:29.513Z,1021.46
2023-02-15T10:21:29.538Z,1021.47
2023-02-15T10:22:29.560Z,1021.47
2023-02-15T10:23:29.586Z,1021.47
2023-02-15T10:24:29.607Z,1021.47
2023-02-15T10:25:29.639Z,1021.41
2023-02-15T10:26:29.655Z,1021.41
2023-02-15T10:27:29.707Z,1021.41
2023-02-15T10:28:29.703Z,1021.42
2023-02-15T10:29:29.726Z,1021.48
2023-02-15T10:30:32.197Z,1021.45
2023-02-15T10:31:29.835Z,1021.43
2023-02-15T10:32:29.794Z,1021.51
2023-02-15T10:33:29.820Z,1021.43
2023-02-15T10:34:29.844Z,1021.47
2023-02-15T10:35:29.868Z,1021.51
2023-02-15T10:36:29.891Z,1021.40
2023-02-15T10:37:29.924Z,1021.46
2023-02-15T10:38:29.938Z,1021.45
2023-02-15T10:39:29.965Z,1021.41
2023-02-15T10:40:29.985Z,1021.45
2023-02-15T10:41:30.016Z,1021.43
2023-02-15T10:42:30.032Z,1021.42
2023-02-15T10:43:30.116Z,1021.34
2023-02-15T10:44:30.080Z,1021.38
2023-02-15T10:45:30.106Z,1021.34
2023-02-15T10:46:30.208Z,1021.37
2023-02-15T10:47:30.152Z,1021.36
2023-02-15T10:48:30.173Z,1021.29
2023-02-15T10:49:30.199Z,1021.30
2023-02-15T10:50:30.232Z,1021.37
2023-02-15T10:51:30.248Z,1021.36
2023-02-15T10:52:30.276Z,1021.33
2023-02-15T10:53:30.299Z,1021.30
2023-02-15T10:54:30.320Z,1021.33
2023-02-15T10:55:30.949Z,1021.26
2023-02-15T10:56:32.984Z,1021.24
2023-02-15T10:57:30.384Z,1021.23
2023-02-15T10:58:30.409Z,1021.24
2023-02-15T10:59:30.460Z,1021.22
2023-02-15T11:00:30.452Z,1021.20
2023-02-15T11:01:30.587Z,1021.23
2023-02-15T11:02:30.822Z,1021.18
2023-02-15T11:03:30.526Z,1021.17
2023-02-15T11:04:30.549Z,1021.16
2023-02-15T11:06:27.047Z,1021.12
2023-02-15T11:07:23.212Z,1021.09
2023-02-15T11:08:23.239Z,1021.08
2023-02-15T11:09:23.261Z,1021.04
2023-02-15T11:10:23.299Z,1021.06
2023-02-15T11:11:23.314Z,1021.07
2023-02-15T11:12:23.438Z,1021.07
2023-02-15T11:13:23.363Z,1021.09
2023-02-15T11:14:23.380Z,1021.09
2023-02-15T11:15:23.523Z,1021.05
2023-02-15T11:16:23.486Z,1021.03
2023-02-15T11:17:23.455Z,1021.01
2023-02-15T11:18:23.478Z,1021.02
2023-02-15T11:19:23.506Z,1021.00
2023-02-15T11:20:23.528Z,1020.96
2023-02-15T11:21:23.553Z,1020.96
2023-02-15T11:22:23.577Z,1020.92
2023-02-15T11:23:23.604Z,1020.92
2023-02-15T11:24:23.628Z,1020.91
2023-02-15T11:25:23.654Z,1020.90
2023-02-15T11:26:23.676Z,1020.91
2023-02-15T11:28:10.462Z,1020.83
2023-02-15T11:29:06.751Z,1020.84
2023-02-15T11:30:06.786Z,1020.89
2023-02-15T11:31:07.060Z,1020.84
2023-02-15T11:32:06.949Z,1020.81
2023-02-15T11:33:07.213Z,1020.78
2023-02-15T11:34:06.861Z,1020.78
2023-02-15T11:35:06.883Z,1020.75
2023-02-15T11:36:06.908Z,1020.74
2023-02-15T11:37:06.933Z,1020.76
2023-02-15T11:38:06.962Z,1020.72
2023-02-15T11:39:06.980Z,1020.71
2023-02-15T11:40:07.007Z,1020.67
2023-02-15T11:41:07.030Z,1020.70
2023-02-15T11:42:07.061Z,1020.67
2023-02-15T11:43:07.086Z,1020.63
2023-02-15T11:44:07.114Z,1020.69
2023-02-15T11:45:07.128Z,1020.65
2023-02-15T11:46:07.267Z,1020.59
2023-02-15T11:47:07.196Z,1020.64
2023-02-15T11:48:07.206Z,1020.64
2023-02-15T11:49:07.229Z,1020.66
2023-02-15T11:50:07.258Z,1020.60
2023-02-15T11:51:07.278Z,1020.62
2023-02-15T11:52:07.330Z,1020.56
2023-02-15T11:53:07.331Z,1020.59
2023-02-15T11:54:07.364Z,1020.55
2023-02-15T11:55:07.380Z,1020.50
2023-02-15T11:56:07.454Z,1020.54
2023-02-15T11:57:07.433Z,1020.52
2023-02-15T11:58:07.459Z,1020.52
2023-02-15T11:59:07.480Z,1020.55
2023-02-15T12:00:07.517Z,1020.55
2023-02-15T12:01:07.532Z,1020.51
2023-02-15T12:02:07.562Z,1020.52
2023-02-15T12:03:07.767Z,1020.48
2023-02-15T12:04:07.662Z,1020.43
2023-02-15T12:05:07.673Z,1020.41
2023-02-15T12:06:07.670Z,1020.42
2023-02-15T12:07:07.685Z,1020.38
2023-02-15T12:08:07.712Z,1020.33